CheckWX is a tool to help pilots better visualize weather data.  It is not intended as a substitute for an official pre-flight weather briefing.

20:12:23 UTC

PAOM TAF
Nome Airport
Nome, Alaska, USA
PAOM 251720Z 2518/2618 36005KT P6SM OVC060 FM261000 09011G16KT 6SM -SHRA BR BKN035 OVC050

Jun-25@
18:00 UTC

Jun-25 @ 18:00 UTC

Jun-26@
10:00 UTC

Jun-26 @ 10:00 UTC

PAOM 251720Z 2518/2618 36005KT P6SM OVC060
Wind
  • 360° at 5 KTS
Cloud Levels
  • Overcast at 6,000' AGL

Jun-26@
10:00 UTC

Jun-26 @ 10:00 UTC

Jun-26@
18:00 UTC

Jun-26 @ 18:00 UTC

FM261000 09011G16KT 6SM -SHRA BR BKN035 OVC050

From

From Standard forecast or significant change

Wind
  • 090° at 11 KTS
  • {Gusting to 16 KTS
Conditions
Light Rain, Mist
Cloud Levels
  • Broken at 3,500' AGL
  • Overcast at 5,000' AGL